sensor_id;sensor_type;location;lat;lon;timestamp;pressure;altitude;pressure_sealevel;temperature;humidity
19843;BME280;10082;51.038;6.992;2023-05-16T00:01:43;-17616.84;;;-144.33;100.00
19843;BME280;10082;51.038;6.992;2023-05-16T00:04:11;-17616.84;;;-144.33;100.00
19843;BME280;10082;51.038;6.992;2023-05-16T00:06:38;-17616.84;;;-144.33;100.00
19843;BME280;10082;51.038;6.992;2023-05-16T00:09:08;-17616.84;;;-144.33;100.00
19843;BME280;10082;51.038;6.992;2023-05-16T00:11:35;-17616.84;;;-144.33;100.00
19843;BME280;10082;51.038;6.992;2023-05-16T00:14:02;-17616.84;;;-144.33;100.00
19843;BME280;10082;51.038;6.992;2023-05-16T00:16:30;-17616.84;;;-144.33;100.00
19843;BME280;10082;51.038;6.992;2023-05-16T00:18:57;-17616.84;;;-144.33;100.00
19843;BME280;10082;51.038;6.992;2023-05-16T00:21:25;-17616.84;;;-144.33;100.00
19843;BME280;10082;51.038;6.992;2023-05-16T00:23:52;-17616.84;;;-144.33;100.00
19843;BME280;10082;51.038;6.992;2023-05-16T00:26:21;-17616.84;;;-144.33;100.00
19843;BME280;10082;51.038;6.992;2023-05-16T00:28:48;-17616.84;;;-144.33;100.00
19843;BME280;10082;51.038;6.992;2023-05-16T00:31:15;-17616.84;;;-144.33;100.00
19843;BME280;10082;51.038;6.992;2023-05-16T00:33:43;-17616.84;;;-144.33;100.00
19843;BME280;10082;51.038;6.992;2023-05-16T00:36:10;-17616.84;;;-144.33;100.00
19843;BME280;10082;51.038;6.992;2023-05-16T00:38:38;-17616.84;;;-144.33;100.00
19843;BME280;10082;51.038;6.992;2023-05-16T00:41:06;-17616.84;;;-144.33;100.00
19843;BME280;10082;51.038;6.992;2023-05-16T00:43:37;-17616.84;;;-144.33;100.00
19843;BME280;10082;51.038;6.992;2023-05-16T00:46:05;-17616.84;;;-144.33;100.00
19843;BME280;10082;51.038;6.992;2023-05-16T00:48:34;-17616.84;;;-144.33;100.00
19843;BME280;10082;51.038;6.992;2023-05-16T00:51:01;-17616.84;;;-144.33;100.00
19843;BME280;10082;51.038;6.992;2023-05-16T00:53:30;-17616.84;;;-144.33;100.00
19843;BME280;10082;51.038;6.992;2023-05-16T00:55:58;-17616.84;;;-144.33;100.00
19843;BME280;10082;51.038;6.992;2023-05-16T00:58:25;-17616.84;;;-144.33;100.00
19843;BME280;10082;51.038;6.992;2023-05-16T01:00:55;-17616.84;;;-144.33;100.00
19843;BME280;10082;51.038;6.992;2023-05-16T01:03:23;-17616.84;;;-144.33;100.00
19843;BME280;10082;51.038;6.992;2023-05-16T01:05:50;-17616.84;;;-144.33;100.00
19843;BME280;10082;51.038;6.992;2023-05-16T01:08:18;-17616.84;;;-144.33;100.00
19843;BME280;10082;51.038;6.992;2023-05-16T01:10:56;-17616.84;;;-144.33;100.00
19843;BME280;10082;51.038;6.992;2023-05-16T01:13:32;-17616.84;;;-144.33;100.00
19843;BME280;10082;51.038;6.992;2023-05-16T01:16:09;-17616.84;;;-144.33;100.00
19843;BME280;10082;51.038;6.992;2023-05-16T01:18:43;-17616.84;;;-144.33;100.00
19843;BME280;10082;51.038;6.992;2023-05-16T01:21:18;-17616.84;;;-144.33;100.00
19843;BME280;10082;51.038;6.992;2023-05-16T01:23:51;-17616.84;;;-144.33;100.00
19843;BME280;10082;51.038;6.992;2023-05-16T01:26:21;-17616.84;;;-144.33;100.00
19843;BME280;10082;51.038;6.992;2023-05-16T01:28:50;-17616.84;;;-144.33;100.00
19843;BME280;10082;51.038;6.992;2023-05-16T01:31:18;-17616.84;;;-144.33;100.00
19843;BME280;10082;51.038;6.992;2023-05-16T01:33:47;-17616.84;;;-144.33;100.00
19843;BME280;10082;51.038;6.992;2023-05-16T01:36:21;-17616.84;;;-144.33;100.00
19843;BME280;10082;51.038;6.992;2023-05-16T01:38:58;-17616.84;;;-144.33;100.00
19843;BME280;10082;51.038;6.992;2023-05-16T01:41:35;-17616.84;;;-144.33;100.00
19843;BME280;10082;51.038;6.992;2023-05-16T01:44:12;-17616.84;;;-144.33;100.00
19843;BME280;10082;51.038;6.992;2023-05-16T01:46:45;-17616.84;;;-144.33;100.00
19843;BME280;10082;51.038;6.992;2023-05-16T01:49:16;-17616.84;;;-144.33;100.00
19843;BME280;10082;51.038;6.992;2023-05-16T01:51:50;-17616.84;;;-144.33;100.00
19843;BME280;10082;51.038;6.992;2023-05-16T01:54:19;-17616.84;;;-144.33;100.00
19843;BME280;10082;51.038;6.992;2023-05-16T01:56:51;-17616.84;;;-144.33;100.00
19843;BME280;10082;51.038;6.992;2023-05-16T01:59:19;-17616.84;;;-144.33;100.00
19843;BME280;10082;51.038;6.992;2023-05-16T02:01:48;-17616.84;;;-144.33;100.00
19843;BME280;10082;51.038;6.992;2023-05-16T02:04:16;-17616.84;;;-144.33;100.00
19843;BME280;10082;51.038;6.992;2023-05-16T02:06:43;-17616.84;;;-144.33;100.00
19843;BME280;10082;51.038;6.992;2023-05-16T02:09:10;-17616.84;;;-144.33;100.00
19843;BME280;10082;51.038;6.992;2023-05-16T02:11:39;-17616.84;;;-144.33;100.00
19843;BME280;10082;51.038;6.992;2023-05-16T02:14:08;-17616.84;;;-144.33;100.00
19843;BME280;10082;51.038;6.992;2023-05-16T02:16:36;-17616.84;;;-144.33;100.00
19843;BME280;10082;51.038;6.992;2023-05-16T02:19:04;-17616.84;;;-144.33;100.00
19843;BME280;10082;51.038;6.992;2023-05-16T02:21:31;-17616.84;;;-144.33;100.00
19843;BME280;10082;51.038;6.992;2023-05-16T02:23:58;-17616.84;;;-144.33;100.00
19843;BME280;10082;51.038;6.992;2023-05-16T02:26:25;-17616.84;;;-144.33;100.00
19843;BME280;10082;51.038;6.992;2023-05-16T02:28:53;-17616.84;;;-144.33;100.00
19843;BME280;10082;51.038;6.992;2023-05-16T02:31:29;-17616.84;;;-144.33;100.00
19843;BME280;10082;51.038;6.992;2023-05-16T02:33:57;-17616.84;;;-144.33;100.00
19843;BME280;10082;51.038;6.992;2023-05-16T02:36:24;-17616.84;;;-144.33;100.00
19843;BME280;10082;51.038;6.992;2023-05-16T02:38:51;-17616.84;;;-144.33;100.00
19843;BME280;10082;51.038;6.992;2023-05-16T02:41:21;-17616.84;;;-144.33;100.00
19843;BME280;10082;51.038;6.992;2023-05-16T02:43:48;-17616.84;;;-144.33;100.00
19843;BME280;10082;51.038;6.992;2023-05-16T02:46:23;-17616.84;;;-144.33;100.00
19843;BME280;10082;51.038;6.992;2023-05-16T02:48:53;-17616.84;;;-144.33;100.00
19843;BME280;10082;51.038;6.992;2023-05-16T02:51:21;-17616.84;;;-144.33;100.00
19843;BME280;10082;51.038;6.992;2023-05-16T02:53:49;-17616.84;;;-144.33;100.00
19843;BME280;10082;51.038;6.992;2023-05-16T02:56:16;-17616.84;;;-144.33;100.00
19843;BME280;10082;51.038;6.992;2023-05-16T02:58:46;-17616.84;;;-144.33;100.00
19843;BME280;10082;51.038;6.992;2023-05-16T03:01:14;-17616.84;;;-144.33;100.00
19843;BME280;10082;51.038;6.992;2023-05-16T03:03:41;-17616.84;;;-144.33;100.00
19843;BME280;10082;51.038;6.992;2023-05-16T03:06:10;-17616.84;;;-144.33;100.00
19843;BME280;10082;51.038;6.992;2023-05-16T03:08:36;-17616.84;;;-144.33;100.00
19843;BME280;10082;51.038;6.992;2023-05-16T03:11:03;-17616.84;;;-144.33;100.00
19843;BME280;10082;51.038;6.992;2023-05-16T03:13:30;-17616.84;;;-144.33;100.00
19843;BME280;10082;51.038;6.992;2023-05-16T03:15:58;-17616.84;;;-144.33;100.00
19843;BME280;10082;51.038;6.992;2023-05-16T03:18:25;-17616.84;;;-144.33;100.00
19843;BME280;10082;51.038;6.992;2023-05-16T03:20:52;-17616.84;;;-144.33;100.00
19843;BME280;10082;51.038;6.992;2023-05-16T03:23:24;-17616.84;;;-144.33;100.00
19843;BME280;10082;51.038;6.992;2023-05-16T03:25:51;-17616.84;;;-144.33;100.00
19843;BME280;10082;51.038;6.992;2023-05-16T03:28:20;-17616.84;;;-144.33;100.00
19843;BME280;10082;51.038;6.992;2023-05-16T03:30:46;-17616.84;;;-144.33;100.00
19843;BME280;10082;51.038;6.992;2023-05-16T03:33:14;-17616.84;;;-144.33;100.00
19843;BME280;10082;51.038;6.992;2023-05-16T03:35:41;-17616.84;;;-144.33;100.00
19843;BME280;10082;51.038;6.992;2023-05-16T03:38:09;-17616.84;;;-144.33;100.00
19843;BME280;10082;51.038;6.992;2023-05-16T03:40:39;-17616.84;;;-144.33;100.00
19843;BME280;10082;51.038;6.992;2023-05-16T03:43:06;-17616.84;;;-144.33;100.00
19843;BME280;10082;51.038;6.992;2023-05-16T03:45:33;-17616.84;;;-144.33;100.00
19843;BME280;10082;51.038;6.992;2023-05-16T03:48:00;-17616.84;;;-144.33;100.00
19843;BME280;10082;51.038;6.992;2023-05-16T03:50:28;-17616.84;;;-144.33;100.00
19843;BME280;10082;51.038;6.992;2023-05-16T03:52:55;-17616.84;;;-144.33;100.00
19843;BME280;10082;51.038;6.992;2023-05-16T03:55:22;-17616.84;;;-144.33;100.00
19843;BME280;10082;51.038;6.992;2023-05-16T03:57:50;-17616.84;;;-144.33;100.00
19843;BME280;10082;51.038;6.992;2023-05-16T04:00:17;-17616.84;;;-144.33;100.00
19843;BME280;10082;51.038;6.992;2023-05-16T04:02:44;-17616.84;;;-144.33;100.00
19843;BME280;10082;51.038;6.992;2023-05-16T04:05:15;-17616.84;;;-144.33;100.00
19843;BME280;10082;51.038;6.992;2023-05-16T04:07:42;-17616.84;;;-144.33;100.00
19843;BME280;10082;51.038;6.992;2023-05-16T04:10:09;-17616.84;;;-144.33;100.00
19843;BME280;10082;51.038;6.992;2023-05-16T04:12:36;-17616.84;;;-144.33;100.00
19843;BME280;10082;51.038;6.992;2023-05-16T04:15:06;-17616.84;;;-144.33;100.00
19843;BME280;10082;51.038;6.992;2023-05-16T04:17:33;-17616.84;;;-144.33;100.00
19843;BME280;10082;51.038;6.992;2023-05-16T04:20:01;-17616.84;;;-144.33;100.00
19843;BME280;10082;51.038;6.992;2023-05-16T04:22:29;-17616.84;;;-144.33;100.00
19843;BME280;10082;51.038;6.992;2023-05-16T04:24:56;-17616.84;;;-144.33;100.00
19843;BME280;10082;51.038;6.992;2023-05-16T04:27:25;-17616.84;;;-144.33;100.00
19843;BME280;10082;51.038;6.992;2023-05-16T04:29:52;-17616.84;;;-144.33;100.00
19843;BME280;10082;51.038;6.992;2023-05-16T04:32:20;-17616.84;;;-144.33;100.00
19843;BME280;10082;51.038;6.992;2023-05-16T04:34:48;-17616.84;;;-144.33;100.00
19843;BME280;10082;51.038;6.992;2023-05-16T04:37:18;-17616.84;;;-144.33;100.00
19843;BME280;10082;51.038;6.992;2023-05-16T04:39:46;-17616.84;;;-144.33;100.00
19843;BME280;10082;51.038;6.992;2023-05-16T04:42:13;-17616.84;;;-144.33;100.00
19843;BME280;10082;51.038;6.992;2023-05-16T04:44:40;-17616.84;;;-144.33;100.00
19843;BME280;10082;51.038;6.992;2023-05-16T04:47:08;-17616.84;;;-144.33;100.00
19843;BME280;10082;51.038;6.992;2023-05-16T04:49:37;-17616.84;;;-144.33;100.00
19843;BME280;10082;51.038;6.992;2023-05-16T04:52:07;-17616.84;;;-144.33;100.00
19843;BME280;10082;51.038;6.992;2023-05-16T04:54:36;-17616.84;;;-144.33;100.00
19843;BME280;10082;51.038;6.992;2023-05-16T04:57:04;-17616.84;;;-144.33;100.00
19843;BME280;10082;51.038;6.992;2023-05-16T04:59:32;-17616.84;;;-144.33;100.00
19843;BME280;10082;51.038;6.992;2023-05-16T05:01:59;-17616.84;;;-144.33;100.00
19843;BME280;10082;51.038;6.992;2023-05-16T05:04:26;-17616.84;;;-144.33;100.00
19843;BME280;10082;51.038;6.992;2023-05-16T05:06:55;-17616.84;;;-144.33;100.00
19843;BME280;10082;51.038;6.992;2023-05-16T05:09:22;-17616.84;;;-144.33;100.00
19843;BME280;10082;51.038;6.992;2023-05-16T05:11:50;-17616.84;;;-144.33;100.00
19843;BME280;10082;51.038;6.992;2023-05-16T05:14:17;-17616.84;;;-144.33;100.00
19843;BME280;10082;51.038;6.992;2023-05-16T05:16:44;-17616.84;;;-144.33;100.00
19843;BME280;10082;51.038;6.992;2023-05-16T05:19:11;-17616.84;;;-144.33;100.00
19843;BME280;10082;51.038;6.992;2023-05-16T05:21:38;-17616.84;;;-144.33;100.00
19843;BME280;10082;51.038;6.992;2023-05-16T05:24:07;-17616.84;;;-144.33;100.00
19843;BME280;10082;51.038;6.992;2023-05-16T05:26:34;-17616.84;;;-144.33;100.00
19843;BME280;10082;51.038;6.992;2023-05-16T05:29:01;-17616.84;;;-144.33;100.00
19843;BME280;10082;51.038;6.992;2023-05-16T05:31:28;-17616.84;;;-144.33;100.00
19843;BME280;10082;51.038;6.992;2023-05-16T05:33:55;-17616.84;;;-144.33;100.00
19843;BME280;10082;51.038;6.992;2023-05-16T05:36:23;-17616.84;;;-144.33;100.00
19843;BME280;10082;51.038;6.992;2023-05-16T05:38:50;-17616.84;;;-144.33;100.00
19843;BME280;10082;51.038;6.992;2023-05-16T05:41:19;-17616.84;;;-144.33;100.00
19843;BME280;10082;51.038;6.992;2023-05-16T05:43:46;-17616.84;;;-144.33;100.00
19843;BME280;10082;51.038;6.992;2023-05-16T05:46:14;-17616.84;;;-144.33;100.00
19843;BME280;10082;51.038;6.992;2023-05-16T05:48:41;-17616.84;;;-144.33;100.00
19843;BME280;10082;51.038;6.992;2023-05-16T05:51:08;-17616.84;;;-144.33;100.00
19843;BME280;10082;51.038;6.992;2023-05-16T05:53:35;-17616.84;;;-144.33;100.00
19843;BME280;10082;51.038;6.992;2023-05-16T05:56:03;-17616.84;;;-144.33;100.00
19843;BME280;10082;51.038;6.992;2023-05-16T05:58:33;-17616.84;;;-144.33;100.00
19843;BME280;10082;51.038;6.992;2023-05-16T06:01:00;-17616.84;;;-144.33;100.00
19843;BME280;10082;51.038;6.992;2023-05-16T06:03:27;-17616.84;;;-144.33;100.00
19843;BME280;10082;51.038;6.992;2023-05-16T06:05:54;-17616.84;;;-144.33;100.00
19843;BME280;10082;51.038;6.992;2023-05-16T06:08:22;-17616.84;;;-144.33;100.00
19843;BME280;10082;51.038;6.992;2023-05-16T06:10:49;-17616.84;;;-144.33;100.00
19843;BME280;10082;51.038;6.992;2023-05-16T06:13:17;-17616.84;;;-144.33;100.00
19843;BME280;10082;51.038;6.992;2023-05-16T06:15:49;-17616.84;;;-144.33;100.00
19843;BME280;10082;51.038;6.992;2023-05-16T06:18:17;-17616.84;;;-144.33;100.00
19843;BME280;10082;51.038;6.992;2023-05-16T06:20:44;-17616.84;;;-144.33;100.00
19843;BME280;10082;51.038;6.992;2023-05-16T06:23:11;-17616.84;;;-144.33;100.00
19843;BME280;10082;51.038;6.992;2023-05-16T06:25:39;-17616.84;;;-144.33;100.00
19843;BME280;10082;51.038;6.992;2023-05-16T06:28:07;-17616.84;;;-144.33;100.00
19843;BME280;10082;51.038;6.992;2023-05-16T06:30:35;-17616.84;;;-144.33;100.00
19843;BME280;10082;51.038;6.992;2023-05-16T06:33:03;-17616.84;;;-144.33;100.00
19843;BME280;10082;51.038;6.992;2023-05-16T06:35:30;-17616.84;;;-144.33;100.00
19843;BME280;10082;51.038;6.992;2023-05-16T06:37:57;-17616.84;;;-144.33;100.00
19843;BME280;10082;51.038;6.992;2023-05-16T06:40:26;-17616.84;;;-144.33;100.00
19843;BME280;10082;51.038;6.992;2023-05-16T06:42:53;-17616.84;;;-144.33;100.00
19843;BME280;10082;51.038;6.992;2023-05-16T06:45:22;-17616.84;;;-144.33;100.00
19843;BME280;10082;51.038;6.992;2023-05-16T06:47:49;-17616.84;;;-144.33;100.00
19843;BME280;10082;51.038;6.992;2023-05-16T06:50:18;-17616.84;;;-144.33;100.00
19843;BME280;10082;51.038;6.992;2023-05-16T06:52:46;-17616.84;;;-144.33;100.00
19843;BME280;10082;51.038;6.992;2023-05-16T06:55:12;-17616.84;;;-144.33;100.00
19843;BME280;10082;51.038;6.992;2023-05-16T06:57:39;-17616.84;;;-144.33;100.00
19843;BME280;10082;51.038;6.992;2023-05-16T07:00:08;-17616.84;;;-144.33;100.00
19843;BME280;10082;51.038;6.992;2023-05-16T07:02:35;-17615.41;;;-144.33;100.00
19843;BME280;10082;51.038;6.992;2023-05-16T07:05:03;-11626.88;;;-144.33;100.00
19843;BME280;10082;51.038;6.992;2023-05-16T07:07:31;-9878.47;;;-144.33;100.00
19843;BME280;10082;51.038;6.992;2023-05-16T07:09:59;-4628.44;;;-144.33;100.00
19843;BME280;10082;51.038;6.992;2023-05-16T07:12:26;628.78;;;-144.33;100.00
19843;BME280;10082;51.038;6.992;2023-05-16T07:14:53;6394.91;;;-144.33;100.00
19843;BME280;10082;51.038;6.992;2023-05-16T07:17:20;12420.94;;;-144.33;100.00
19843;BME280;10082;51.038;6.992;2023-05-16T07:19:48;27779.28;;;-144.33;100.00
19843;BME280;10082;51.038;6.992;2023-05-16T07:22:15;34849.31;;;-144.33;100.00
19843;BME280;10082;51.038;6.992;2023-05-16T07:24:44;47252.56;;;-144.33;100.00
19843;BME280;10082;51.038;6.992;2023-05-16T07:27:11;58423.50;;;-144.33;100.00
19843;BME280;10082;51.038;6.992;2023-05-16T07:29:38;64530.03;;;-144.33;100.00
19843;BME280;10082;51.038;6.992;2023-05-16T07:32:06;59186.31;;;-144.33;100.00
19843;BME280;10082;51.038;6.992;2023-05-16T07:34:33;57152.50;;;-144.33;100.00
19843;BME280;10082;51.038;6.992;2023-05-16T07:37:00;56898.34;;;-144.33;100.00
19843;BME280;10082;51.038;6.992;2023-05-16T07:39:27;55881.88;;;-144.33;100.00
19843;BME280;10082;51.038;6.992;2023-05-16T07:41:56;54865.69;;;-144.33;100.00
19843;BME280;10082;51.038;6.992;2023-05-16T07:44:23;57406.66;;;-144.33;100.00
19843;BME280;10082;51.038;6.992;2023-05-16T07:46:53;59694.94;;;-144.33;100.00
19843;BME280;10082;51.038;6.992;2023-05-16T07:49:20;71666.16;;;-144.33;100.00
19843;BME280;10082;51.038;6.992;2023-05-16T07:51:47;85720.72;;;-144.33;100.00
19843;BME280;10082;51.038;6.992;2023-05-16T07:54:14;112171.53;;;-144.33;100.00
19843;BME280;10082;51.038;6.992;2023-05-16T07:56:40;112171.53;;;-144.33;97.44
19843;BME280;10082;51.038;6.992;2023-05-16T07:59:09;112171.53;;;-144.33;94.51
19843;BME280;10082;51.038;6.992;2023-05-16T08:01:36;112171.53;;;-144.33;88.81
19843;BME280;10082;51.038;6.992;2023-05-16T08:04:03;112171.53;;;-144.33;84.28
19843;BME280;10082;51.038;6.992;2023-05-16T08:06:31;112171.53;;;-144.33;80.47
19843;BME280;10082;51.038;6.992;2023-05-16T08:08:58;112171.53;;;-144.33;81.95
19843;BME280;10082;51.038;6.992;2023-05-16T08:11:26;112171.53;;;-144.33;88.25
19843;BME280;10082;51.038;6.992;2023-05-16T08:13:53;112171.53;;;-144.33;92.61
19843;BME280;10082;51.038;6.992;2023-05-16T08:16:22;112171.53;;;-144.33;89.46
19843;BME280;10082;51.038;6.992;2023-05-16T08:18:49;112171.53;;;-144.33;92.50
19843;BME280;10082;51.038;6.992;2023-05-16T08:21:16;112171.53;;;-144.33;89.47
19843;BME280;10082;51.038;6.992;2023-05-16T08:23:43;112171.53;;;-144.33;84.61
19843;BME280;10082;51.038;6.992;2023-05-16T08:26:10;112171.53;;;-144.33;81.04
19843;BME280;10082;51.038;6.992;2023-05-16T08:28:37;112171.53;;;-144.33;80.15
19843;BME280;10082;51.038;6.992;2023-05-16T08:31:09;112171.53;;;-144.33;76.77
19843;BME280;10082;51.038;6.992;2023-05-16T08:33:38;112171.53;;;-144.33;76.56
19843;BME280;10082;51.038;6.992;2023-05-16T08:36:05;112171.53;;;-144.33;74.02
19843;BME280;10082;51.038;6.992;2023-05-16T08:38:32;112171.53;;;-144.33;70.43
19843;BME280;10082;51.038;6.992;2023-05-16T08:40:59;112171.53;;;-144.33;68.16
19843;BME280;10082;51.038;6.992;2023-05-16T08:43:26;112171.53;;;-144.33;66.93
19843;BME280;10082;51.038;6.992;2023-05-16T08:45:53;112171.53;;;-144.33;70.36
19843;BME280;10082;51.038;6.992;2023-05-16T08:48:22;112171.53;;;-144.33;67.70
19843;BME280;10082;51.038;6.992;2023-05-16T08:50:51;112171.53;;;-144.33;63.50
19843;BME280;10082;51.038;6.992;2023-05-16T08:53:30;112171.53;;;-144.33;58.53
19843;BME280;10082;51.038;6.992;2023-05-16T08:55:59;112171.53;;;-144.33;56.61
19843;BME280;10082;51.038;6.992;2023-05-16T08:58:26;112171.53;;;-144.33;58.29
19843;BME280;10082;51.038;6.992;2023-05-16T09:00:55;112171.53;;;-144.33;61.87
19843;BME280;10082;51.038;6.992;2023-05-16T09:03:22;112171.53;;;-144.33;58.55
19843;BME280;10082;51.038;6.992;2023-05-16T09:05:52;112171.53;;;-144.33;59.41
19843;BME280;10082;51.038;6.992;2023-05-16T09:08:19;112171.53;;;-144.33;54.21
19843;BME280;10082;51.038;6.992;2023-05-16T09:10:46;112171.53;;;-144.33;50.33
19843;BME280;10082;51.038;6.992;2023-05-16T09:13:13;112171.53;;;-144.33;53.77
19843;BME280;10082;51.038;6.992;2023-05-16T09:15:40;112171.53;;;-144.33;61.51
19843;BME280;10082;51.038;6.992;2023-05-16T09:18:11;112171.53;;;-144.33;63.07
19843;BME280;10082;51.038;6.992;2023-05-16T09:20:42;112171.53;;;-144.33;69.65
19843;BME280;10082;51.038;6.992;2023-05-16T09:23:14;112171.53;;;-144.33;70.89
19843;BME280;10082;51.038;6.992;2023-05-16T09:25:41;112171.53;;;-144.33;71.78
19843;BME280;10082;51.038;6.992;2023-05-16T09:28:09;112171.53;;;-144.33;72.26
19843;BME280;10082;51.038;6.992;2023-05-16T09:30:37;112171.53;;;-144.33;71.75
19843;BME280;10082;51.038;6.992;2023-05-16T09:33:06;112171.53;;;-144.33;72.73
19843;BME280;10082;51.038;6.992;2023-05-16T09:35:33;112171.53;;;-144.33;73.13
19843;BME280;10082;51.038;6.992;2023-05-16T09:38:02;112171.53;;;-144.33;72.77
19843;BME280;10082;51.038;6.992;2023-05-16T09:40:30;112171.53;;;-144.33;72.34
19843;BME280;10082;51.038;6.992;2023-05-16T09:43:02;112171.53;;;-144.33;70.40
19843;BME280;10082;51.038;6.992;2023-05-16T09:45:30;112171.53;;;-144.33;69.89
19843;BME280;10082;51.038;6.992;2023-05-16T09:48:01;112171.53;;;-144.33;66.45
19843;BME280;10082;51.038;6.992;2023-05-16T09:50:31;112171.53;;;-144.33;65.10
19843;BME280;10082;51.038;6.992;2023-05-16T09:52:59;112171.53;;;-144.33;64.62
19843;BME280;10082;51.038;6.992;2023-05-16T09:55:26;112171.53;;;-144.33;58.96
19843;BME280;10082;51.038;6.992;2023-05-16T09:57:55;112171.53;;;-144.33;56.34
19843;BME280;10082;51.038;6.992;2023-05-16T10:00:28;112171.53;;;-144.33;57.00
19843;BME280;10082;51.038;6.992;2023-05-16T10:02:56;112171.53;;;-144.33;53.68
19843;BME280;10082;51.038;6.992;2023-05-16T10:05:25;112171.53;;;-144.33;56.87
19843;BME280;10082;51.038;6.992;2023-05-16T10:07:54;112171.53;;;-144.33;57.83
19843;BME280;10082;51.038;6.992;2023-05-16T10:10:22;112171.53;;;-144.33;59.34
19843;BME280;10082;51.038;6.992;2023-05-16T10:12:49;112171.53;;;-144.33;55.59
19843;BME280;10082;51.038;6.992;2023-05-16T10:15:18;112171.53;;;-144.33;53.26
19843;BME280;10082;51.038;6.992;2023-05-16T10:17:50;112171.53;;;-144.33;48.91
19843;BME280;10082;51.038;6.992;2023-05-16T10:20:17;112171.53;;;-144.33;48.29
19843;BME280;10082;51.038;6.992;2023-05-16T10:22:46;112171.53;;;-144.33;44.34
19843;BME280;10082;51.038;6.992;2023-05-16T10:25:24;112171.53;;;-144.33;43.27
19843;BME280;10082;51.038;6.992;2023-05-16T10:27:52;112171.53;;;-144.33;42.40
19843;BME280;10082;51.038;6.992;2023-05-16T10:30:21;112171.53;;;-144.33;42.15
19843;BME280;10082;51.038;6.992;2023-05-16T10:32:49;112171.53;;;-144.33;40.57
19843;BME280;10082;51.038;6.992;2023-05-16T10:35:18;112171.53;;;-144.33;40.36
19843;BME280;10082;51.038;6.992;2023-05-16T10:37:46;112171.53;;;-144.33;42.65
19843;BME280;10082;51.038;6.992;2023-05-16T10:40:14;112171.53;;;-144.33;45.69
19843;BME280;10082;51.038;6.992;2023-05-16T10:42:46;112171.53;;;-144.33;47.24
19843;BME280;10082;51.038;6.992;2023-05-16T10:45:22;112171.53;;;-144.33;48.36
19843;BME280;10082;51.038;6.992;2023-05-16T10:47:53;112171.53;;;-144.33;47.53
19843;BME280;10082;51.038;6.992;2023-05-16T10:50:31;112171.53;;;-144.33;46.39
19843;BME280;10082;51.038;6.992;2023-05-16T10:53:14;112171.53;;;-144.33;43.84
19843;BME280;10082;51.038;6.992;2023-05-16T10:55:48;112171.53;;;-144.33;42.81
19843;BME280;10082;51.038;6.992;2023-05-16T10:58:21;112171.53;;;-144.33;41.25
19843;BME280;10082;51.038;6.992;2023-05-16T11:01:17;112171.53;;;-144.33;44.45
19843;BME280;10082;51.038;6.992;2023-05-16T11:04:05;112171.53;;;-144.33;47.72
19843;BME280;10082;51.038;6.992;2023-05-16T11:06:33;112171.53;;;-144.33;47.60
19843;BME280;10082;51.038;6.992;2023-05-16T11:09:05;112171.53;;;-144.33;48.45
19843;BME280;10082;51.038;6.992;2023-05-16T11:11:38;112171.53;;;-144.33;51.23
19843;BME280;10082;51.038;6.992;2023-05-16T11:14:06;112171.53;;;-144.33;50.07
19843;BME280;10082;51.038;6.992;2023-05-16T11:16:35;112171.53;;;-144.33;48.86
19843;BME280;10082;51.038;6.992;2023-05-16T11:19:05;112171.53;;;-144.33;49.69
19843;BME280;10082;51.038;6.992;2023-05-16T11:24:48;112171.53;;;-144.33;42.90
19843;BME280;10082;51.038;6.992;2023-05-16T11:27:20;112171.53;;;-144.33;46.17
19843;BME280;10082;51.038;6.992;2023-05-16T11:29:47;112171.53;;;-144.33;48.57
19843;BME280;10082;51.038;6.992;2023-05-16T11:32:18;112171.53;;;-144.33;49.90
19843;BME280;10082;51.038;6.992;2023-05-16T11:34:47;112171.53;;;-144.33;53.99
19843;BME280;10082;51.038;6.992;2023-05-16T11:37:15;112171.53;;;-144.33;57.40
19843;BME280;10082;51.038;6.992;2023-05-16T11:39:42;112171.53;;;-144.33;59.16
19843;BME280;10082;51.038;6.992;2023-05-16T11:42:09;112171.53;;;-144.33;59.66
19843;BME280;10082;51.038;6.992;2023-05-16T11:44:38;112171.53;;;-144.33;62.73
19843;BME280;10082;51.038;6.992;2023-05-16T11:47:05;112171.53;;;-144.33;61.63
19843;BME280;10082;51.038;6.992;2023-05-16T11:49:34;112171.53;;;-144.33;61.23
19843;BME280;10082;51.038;6.992;2023-05-16T11:52:02;112171.53;;;-144.33;60.95
19843;BME280;10082;51.038;6.992;2023-05-16T11:54:29;112171.53;;;-144.33;59.32
19843;BME280;10082;51.038;6.992;2023-05-16T11:56:56;112171.53;;;-144.33;60.44
19843;BME280;10082;51.038;6.992;2023-05-16T11:59:24;112171.53;;;-144.33;60.47
19843;BME280;10082;51.038;6.992;2023-05-16T12:01:51;112171.53;;;-144.33;58.29
19843;BME280;10082;51.038;6.992;2023-05-16T12:04:18;112171.53;;;-144.33;54.65
19843;BME280;10082;51.038;6.992;2023-05-16T12:09:51;112171.53;;;-144.33;53.72
19843;BME280;10082;51.038;6.992;2023-05-16T12:12:19;112171.53;;;-144.33;52.29
19843;BME280;10082;51.038;6.992;2023-05-16T12:14:46;112171.53;;;-144.33;49.24
19843;BME280;10082;51.038;6.992;2023-05-16T12:17:13;112171.53;;;-144.33;47.00
19843;BME280;10082;51.038;6.992;2023-05-16T12:19:40;112171.53;;;-144.33;47.76
19843;BME280;10082;51.038;6.992;2023-05-16T12:22:15;112171.53;;;-144.33;47.73
19843;BME280;10082;51.038;6.992;2023-05-16T12:24:43;112171.53;;;-144.33;46.82
19843;BME280;10082;51.038;6.992;2023-05-16T12:27:10;112171.53;;;-144.33;47.09
19843;BME280;10082;51.038;6.992;2023-05-16T12:29:37;112171.53;;;-144.33;48.85
19843;BME280;10082;51.038;6.992;2023-05-16T12:32:06;112171.53;;;-144.33;51.14
19843;BME280;10082;51.038;6.992;2023-05-16T12:34:33;112171.53;;;-144.33;54.48
19843;BME280;10082;51.038;6.992;2023-05-16T12:37:00;112171.53;;;-144.33;53.74
19843;BME280;10082;51.038;6.992;2023-05-16T12:39:36;112171.53;;;-144.33;55.77